Fortune Wing — VRHW2 — position and weather

sailwx.info

Track history (hours):
 
Tides and Currents Weather Stations Pressure Air Temp Water Temp Dewpoint Dewpoint Depression Visibility Wind Speed Wind Dir Waves Ship Positions

Fortune Wing

Last reported at 2015-Jun-19 23:20 UTC. Time now 2015-Jul-07 15:27 UTC.
Position N 35°22' W 026°18'.
Warning: this ship's position is 17 days out of date.

Length 190 m; draft 6.6 m.

Type: Cargo ship. MMSI: 477389500.

Date/timePositionNaut miles runAvg speedWind from/ knotsBaromVisibWave heightAir tempDewpointWater temp
2015-Jun-19 23:20N 35°22' W 026°18'1214.1
2015-Jun-19 22:29N 35°24' W 026°04'1714.3
2015-Jun-19 21:19N 35°26' W 025°43'1714.3
2015-Jun-19 20:06N 35°28' W 025°22'813.8
2015-Jun-19 19:33N 35°29' W 025°13'1413.6
2015-Jun-19 18:33N 35°31' W 024°56'1413.7
2015-Jun-19 17:33N 35°32' W 024°40'1413.7
2015-Jun-19 16:34N 35°34' W 024°23'1413.7
2015-Jun-19 15:32N 35°35' W 024°06'1414.0
2015-Jun-19 14:34N 35°37' W 023°49'1513.9
2015-Jun-19 13:29N 35°39' W 023°31'9 9.4
2015-Jun-19 12:33N 35°40' W 023°20'3 2.6
2015-Jun-19 11:34N 35°40' W 023°17'1413.6
2015-Jun-19 10:34N 35°42' W 023°01'1414.2
2015-Jun-19 09:33N 35°44' W 022°43'1513.9
2015-Jun-19 08:30N 35°46' W 022°25'1314.1
2015-Jun-19 07:33N 35°47' W 022°09'32613.6
2015-Jun-18 07:32N 36°03' W 015°27'1613.8
2015-Jun-18 06:24N 36°04' W 015°07'1214.0
2015-Jun-18 05:31N 36°04' W 014°52'1413.8
2015-Jun-18 04:31N 36°04' W 014°35'2013.8
2015-Jun-18 03:05N 36°04' W 014°11'1013.9
2015-Jun-18 02:20N 36°04' W 013°58'1113.9
2015-Jun-18 01:33N 36°04' W 013°44'1414.1
2015-Jun-18 00:33N 36°05' W 013°27'1413.8
2015-Jun-17 23:33N 36°05' W 013°10'1414.1
2015-Jun-17 22:33N 36°05' W 012°52'1413.5
2015-Jun-17 21:33N 36°05' W 012°36'1313.3
2015-Jun-17 20:33N 36°05' W 012°19'1413.6
2015-Jun-17 19:33N 36°06' W 012°03'1413.6
2015-Jun-17 18:33N 36°05' W 011°46'1313.6
2015-Jun-17 17:33N 36°06' W 011°29'1413.8
2015-Jun-17 16:33N 36°06' W 011°12'1413.8
2015-Jun-17 15:33N 36°06' W 010°55'1413.7
2015-Jun-17 14:33N 36°07' W 010°38'1413.6
2015-Jun-17 13:34N 36°07' W 010°21'1313.4
2015-Jun-17 12:34N 36°07' W 010°04'1313.3
2015-Jun-17 11:34N 36°07' W 009°48'1313.1
2015-Jun-17 10:33N 36°06' W 009°32'1313.1
2015-Jun-17 09:33N 36°05' W 009°16'1313.1
2015-Jun-17 08:34N 36°04' W 008°60'1313.4
2015-Jun-17 07:33N 36°04' W 008°43'1413.7
2015-Jun-17 06:33N 36°03' W 008°26'1414.0
2015-Jun-17 05:33N 36°02' W 008°09'1414.1
2015-Jun-17 04:33N 36°01' W 007°51'1414.3
2015-Jun-17 03:33N 36°01' W 007°34'1514.5
2015-Jun-17 02:33N 35°60' W 007°16'7714.5
2015-Jun-16 21:12N 35°58' W 005°40'811.9
2015-Jun-16 20:30N 35°59' W 005°30'9 9.6
2015-Jun-16 19:33N 36°02' W 005°19'1211.1
2015-Jun-16 18:30N 36°05' W 005°05'7812.3
2015-Jun-16 12:10N 36°16' W 003°30'913.0
2015-Jun-16 11:30N 36°18' W 003°19'1212.9
2015-Jun-16 10:33N 36°19' W 003°04'1313.3
2015-Jun-16 09:33N 36°22' W 002°48'1313.1
2015-Jun-16 08:33N 36°23' W 002°31'1313.0
2015-Jun-16 07:33N 36°25' W 002°15'1312.8
2015-Jun-16 06:33N 36°27' W 001°60'1313.0
2015-Jun-16 05:33N 36°30' W 001°44'1313.3
2015-Jun-16 04:33N 36°32' W 001°28'2013.3
2015-Jun-16 03:05N 36°35' W 001°03'1013.2
2015-Jun-16 02:22N 36°36' W 000°52'1113.0
2015-Jun-16 01:33N 36°38' W 000°39'11512.8
2015-Jun-15 16:33N 36°57' E 001°43'2412.0
2015-Jun-15 14:32N 37°01' E 002°13'1212.0
2015-Jun-15 13:33N 37°03' E 002°27'1212.4
2015-Jun-15 12:33N 37°06' E 002°42'35213.0
2015-Jun-14 09:33N 37°39' E 010°03'11913.2
2015-Jun-14 00:31N 36°52' E 012°20'1312.9
2015-Jun-13 23:32N 36°47' E 012°35'1513.3
2015-Jun-13 22:24N 36°41' E 012°53'1213.6
2015-Jun-13 21:33N 36°37' E 013°06'1414.0
2015-Jun-13 20:33N 36°32' E 013°22'1414.3
2015-Jun-13 19:33N 36°25' E 013°38'1414.0
2015-Jun-13 18:33N 36°20' E 013°54'1414.0
2015-Jun-13 17:33N 36°14' E 014°10'1414.5
2015-Jun-13 16:33N 36°08' E 014°26'1414.4
2015-Jun-13 15:33N 35°58' E 014°39'9 8.6
2015-Jun-13 14:33N 35°52' E 014°46'0 0.1
2015-Jun-13 13:31N 35°52' E 014°46'0 0.0
2015-Jun-13 12:22N 35°52' E 014°46'0 0.0
2015-Jun-13 11:25N 35°52' E 014°46'0 0.0
2015-Jun-13 10:31N 35°52' E 014°46'0 0.0
2015-Jun-13 09:31N 35°52' E 014°46'0 0.0
2015-Jun-13 08:28N 35°52' E 014°46'0 0.1
2015-Jun-13 07:31N 35°52' E 014°46'0 0.0
2015-Jun-13 06:31N 35°52' E 014°46'0 0.0
2015-Jun-13 05:31N 35°52' E 014°46'0 0.0
2015-Jun-13 04:31N 35°52' E 014°46'1 0.6
2015-Jun-13 03:33N 35°53' E 014°47'5 4.8
2015-Jun-13 02:34N 35°57' E 014°50'6 5.4
2015-Jun-13 01:31N 36°01' E 014°55'1 1.2
2015-Jun-13 00:31N 36°01' E 014°57'1 0.8
2015-Jun-12 23:32N 36°02' E 014°57'2 1.7
2015-Jun-12 22:32N 35°60' E 014°57'2 1.6
2015-Jun-12 21:32N 35°58' E 014°57'2 1.7
2015-Jun-12 20:33N 35°57' E 014°56'1 0.9
2015-Jun-12 19:33N 35°56' E 014°55'1 1.2
2015-Jun-12 18:33N 35°56' E 014°56'1 1.3
2015-Jun-12 17:34N 35°55' E 014°58'1 1.5
2015-Jun-12 16:34N 35°55' E 014°60'1110.7
2015-Jun-12 15:33N 35°55' E 015°13'1414.2
2015-Jun-12 14:33N 35°55' E 015°30'4514.2
2015-Jun-12 11:24N 35°56' E 016°26'35813.1
2015-Jun-11 08:07N 36°50' E 023°45'814.3
2015-Jun-11 07:33N 36°57' E 023°48'1414.5
2015-Jun-11 06:33N 37°10' E 023°56'1515.1
2015-Jun-11 05:33N 37°24' E 024°03'7013.9
2015-Jun-11 00:30N 38°23' E 024°52'10114.2
2015-Jun-10 17:25N 39°54' E 025°50'13210.3
2015-Jun-10 04:33N 40°52' E 028°25'10 9.8
2015-Jun-10 03:33N 40°54' E 028°38'1010.0
2015-Jun-10 02:33N 40°55' E 028°51'  
Track history (hours):
 
Tides and Currents Weather Stations Pressure Air Temp Water Temp Dewpoint Dewpoint Depression Visibility Wind Speed Wind Dir Waves Ship Positions

Fortune Wing

Last reported at 2015-Jun-19 23:20 UTC. Time now 2015-Jul-07 15:27 UTC.
Position N 35°22' W 026°18'.
Warning: this ship's position is 17 days out of date.

Length 190 m; draft 6.6 m.

Type: Cargo ship. MMSI: 477389500.

Date/timePositionNaut miles runAvg speedWind from/ knotsBaromVisibWave heightAir tempDewpointWater temp
2015-Jun-19 23:20N 35°22' W 026°18'1214.1
2015-Jun-19 22:29N 35°24' W 026°04'1714.3
2015-Jun-19 21:19N 35°26' W 025°43'1714.3
2015-Jun-19 20:06N 35°28' W 025°22'813.8
2015-Jun-19 19:33N 35°29' W 025°13'1413.6
2015-Jun-19 18:33N 35°31' W 024°56'1413.7
2015-Jun-19 17:33N 35°32' W 024°40'1413.7
2015-Jun-19 16:34N 35°34' W 024°23'1413.7
2015-Jun-19 15:32N 35°35' W 024°06'1414.0
2015-Jun-19 14:34N 35°37' W 023°49'1513.9
2015-Jun-19 13:29N 35°39' W 023°31'9 9.4
2015-Jun-19 12:33N 35°40' W 023°20'3 2.6
2015-Jun-19 11:34N 35°40' W 023°17'1413.6
2015-Jun-19 10:34N 35°42' W 023°01'1414.2
2015-Jun-19 09:33N 35°44' W 022°43'1513.9
2015-Jun-19 08:30N 35°46' W 022°25'1314.1
2015-Jun-19 07:33N 35°47' W 022°09'32613.6
2015-Jun-18 07:32N 36°03' W 015°27'1613.8
2015-Jun-18 06:24N 36°04' W 015°07'1214.0
2015-Jun-18 05:31N 36°04' W 014°52'1413.8
2015-Jun-18 04:31N 36°04' W 014°35'2013.8
2015-Jun-18 03:05N 36°04' W 014°11'1013.9
2015-Jun-18 02:20N 36°04' W 013°58'1113.9
2015-Jun-18 01:33N 36°04' W 013°44'1414.1
2015-Jun-18 00:33N 36°05' W 013°27'1413.8
2015-Jun-17 23:33N 36°05' W 013°10'1414.1
2015-Jun-17 22:33N 36°05' W 012°52'1413.5
2015-Jun-17 21:33N 36°05' W 012°36'1313.3
2015-Jun-17 20:33N 36°05' W 012°19'1413.6
2015-Jun-17 19:33N 36°06' W 012°03'1413.6
2015-Jun-17 18:33N 36°05' W 011°46'1313.6
2015-Jun-17 17:33N 36°06' W 011°29'1413.8
2015-Jun-17 16:33N 36°06' W 011°12'1413.8
2015-Jun-17 15:33N 36°06' W 010°55'1413.7
2015-Jun-17 14:33N 36°07' W 010°38'1413.6
2015-Jun-17 13:34N 36°07' W 010°21'1313.4
2015-Jun-17 12:34N 36°07' W 010°04'1313.3
2015-Jun-17 11:34N 36°07' W 009°48'1313.1
2015-Jun-17 10:33N 36°06' W 009°32'1313.1
2015-Jun-17 09:33N 36°05' W 009°16'1313.1
2015-Jun-17 08:34N 36°04' W 008°60'1313.4
2015-Jun-17 07:33N 36°04' W 008°43'1413.7
2015-Jun-17 06:33N 36°03' W 008°26'1414.0
2015-Jun-17 05:33N 36°02' W 008°09'1414.1
2015-Jun-17 04:33N 36°01' W 007°51'1414.3
2015-Jun-17 03:33N 36°01' W 007°34'1514.5
2015-Jun-17 02:33N 35°60' W 007°16'7714.5
2015-Jun-16 21:12N 35°58' W 005°40'811.9
2015-Jun-16 20:30N 35°59' W 005°30'9 9.6
2015-Jun-16 19:33N 36°02' W 005°19'1211.1
2015-Jun-16 18:30N 36°05' W 005°05'7812.3
2015-Jun-16 12:10N 36°16' W 003°30'913.0
2015-Jun-16 11:30N 36°18' W 003°19'1212.9
2015-Jun-16 10:33N 36°19' W 003°04'1313.3
2015-Jun-16 09:33N 36°22' W 002°48'1313.1
2015-Jun-16 08:33N 36°23' W 002°31'1313.0
2015-Jun-16 07:33N 36°25' W 002°15'1312.8
2015-Jun-16 06:33N 36°27' W 001°60'1313.0
2015-Jun-16 05:33N 36°30' W 001°44'1313.3
2015-Jun-16 04:33N 36°32' W 001°28'2013.3
2015-Jun-16 03:05N 36°35' W 001°03'1013.2
2015-Jun-16 02:22N 36°36' W 000°52'1113.0
2015-Jun-16 01:33N 36°38' W 000°39'11512.8
2015-Jun-15 16:33N 36°57' E 001°43'2412.0
2015-Jun-15 14:32N 37°01' E 002°13'1212.0
2015-Jun-15 13:33N 37°03' E 002°27'1212.4
2015-Jun-15 12:33N 37°06' E 002°42'35213.0
2015-Jun-14 09:33N 37°39' E 010°03'11913.2
2015-Jun-14 00:31N 36°52' E 012°20'1312.9
2015-Jun-13 23:32N 36°47' E 012°35'1513.3
2015-Jun-13 22:24N 36°41' E 012°53'1213.6
2015-Jun-13 21:33N 36°37' E 013°06'1414.0
2015-Jun-13 20:33N 36°32' E 013°22'1414.3
2015-Jun-13 19:33N 36°25' E 013°38'1414.0
2015-Jun-13 18:33N 36°20' E 013°54'1414.0
2015-Jun-13 17:33N 36°14' E 014°10'1414.5
2015-Jun-13 16:33N 36°08' E 014°26'1414.4
2015-Jun-13 15:33N 35°58' E 014°39'9 8.6
2015-Jun-13 14:33N 35°52' E 014°46'0 0.1
2015-Jun-13 13:31N 35°52' E 014°46'0 0.0
2015-Jun-13 12:22N 35°52' E 014°46'0 0.0
2015-Jun-13 11:25N 35°52' E 014°46'0 0.0
2015-Jun-13 10:31N 35°52' E 014°46'0 0.0
2015-Jun-13 09:31N 35°52' E 014°46'0 0.0
2015-Jun-13 08:28N 35°52' E 014°46'0 0.1
2015-Jun-13 07:31N 35°52' E 014°46'0 0.0
2015-Jun-13 06:31N 35°52' E 014°46'0 0.0
2015-Jun-13 05:31N 35°52' E 014°46'0 0.0
2015-Jun-13 04:31N 35°52' E 014°46'1 0.6
2015-Jun-13 03:33N 35°53' E 014°47'5 4.8
2015-Jun-13 02:34N 35°57' E 014°50'6 5.4
2015-Jun-13 01:31N 36°01' E 014°55'1 1.2
2015-Jun-13 00:31N 36°01' E 014°57'1 0.8
2015-Jun-12 23:32N 36°02' E 014°57'2 1.7
2015-Jun-12 22:32N 35°60' E 014°57'2 1.6
2015-Jun-12 21:32N 35°58' E 014°57'2 1.7
2015-Jun-12 20:33N 35°57' E 014°56'1 0.9
2015-Jun-12 19:33N 35°56' E 014°55'1 1.2
2015-Jun-12 18:33N 35°56' E 014°56'1 1.3
2015-Jun-12 17:34N 35°55' E 014°58'1 1.5
2015-Jun-12 16:34N 35°55' E 014°60'1110.7
2015-Jun-12 15:33N 35°55' E 015°13'1414.2
2015-Jun-12 14:33N 35°55' E 015°30'4514.2
2015-Jun-12 11:24N 35°56' E 016°26'35813.1
2015-Jun-11 08:07N 36°50' E 023°45'814.3
2015-Jun-11 07:33N 36°57' E 023°48'1414.5
2015-Jun-11 06:33N 37°10' E 023°56'1515.1
2015-Jun-11 05:33N 37°24' E 024°03'7013.9
2015-Jun-11 00:30N 38°23' E 024°52'10114.2
2015-Jun-10 17:25N 39°54' E 025°50'13210.3
2015-Jun-10 04:33N 40°52' E 028°25'10 9.8
2015-Jun-10 03:33N 40°54' E 028°38'1010.0
2015-Jun-10 02:33N 40°55' E 028°51'  

Dump ship's entire track history